Time;durP1;ratioP1;P1;durP2;ratioP2;P2;SDS_P1;SDS_P2;PMS_P1;PMS_P2;Temp;Humidity;BMP_temperature;BMP_pressure;BME280_temperature;BME280_humidity;BME280_pressure;Samples;Min_cycle;Max_cycle;Signal;HPM_P1;HPM_P2
2022/07/23 00:00:57;;;;;;;;;;;;;;;;;;4987419;28;19953;-42
2022/07/23 00:03:24;;;;;;;;;;;;;;;;;;4986794;28;20004;-43
2022/07/23 00:05:50;;;;;;;;;;;;;;;;;;5002508;28;19910;-41
2022/07/23 00:08:16;;;;;;;;;;;;;;;;;;5001015;28;19960;-39
2022/07/23 00:10:42;;;;;;;;;;;;;;;;;;4994521;28;20016;-40
2022/07/23 00:13:08;;;;;;;;;;;;;;;;;;4986796;28;19971;-40
2022/07/23 00:15:34;;;;;;;;;;;;;;;;;;4987451;28;19921;-40
2022/07/23 00:18:02;;;;;;;;;;;;;;;;;;4987487;28;20460;-39
2022/07/23 00:20:28;;;;;;;;;;;;;;;;;;4996004;28;19944;-39
2022/07/23 00:22:54;;;;;;;;;;;;;;;;;;5007653;28;20003;-40
2022/07/23 00:25:20;;;;;;;;;;;;;;;;;;5007322;28;19968;-40
2022/07/23 00:27:46;;;;;;;;;;;;;;;;;;5007372;28;19996;-41
2022/07/23 00:30:12;;;;;;;;;;;;;;;;;;4992040;28;19920;-40
2022/07/23 00:32:38;;;;;;;;;;;;;;;;;;4992889;28;19929;-40
2022/07/23 00:35:03;;;;;;;;;;;;;;;;;;4987599;28;19910;-40
2022/07/23 00:37:29;;;;;;;;;;;;;;;;;;4988538;28;19910;-40
2022/07/23 00:39:55;;;;;;;;;;;;;;;;;;4990207;28;19924;-40
2022/07/23 00:42:21;;;;;;;;;;;;;;;;;;5007088;28;19996;-40
2022/07/23 00:44:47;;;;;;;;;;;;;;;;;;5007473;28;19913;-41
2022/07/23 00:47:13;;;;;;;;;;;;;;;;;;5005017;28;19948;-41
2022/07/23 00:49:39;;;;;;;;;;;;;;;;;;5007283;28;19914;-40
2022/07/23 00:52:06;;;;;;;;;;;;;;;;;;5006941;28;19944;-40
2022/07/23 00:54:32;;;;;;;;;;;;;;;;;;5007288;28;19968;-41
2022/07/23 00:56:58;;;;;;;;;;;;;;;;;;5006652;28;19921;-40
2022/07/23 00:59:24;;;;;;;;;;;;;;;;;;5006919;28;19944;-40
2022/07/23 01:01:50;;;;;;;;;;;;;;;;;;5006982;28;19909;-40
2022/07/23 01:04:15;;;;;;;;;;;;;;;;;;5003686;28;19913;-40
2022/07/23 01:06:41;;;;;;;;;;;;;;;;;;4985324;28;19926;-40
2022/07/23 01:09:08;;;;;;;;;;;;;;;;;;4985280;28;19996;-40
2022/07/23 01:11:34;;;;;;;;;;;;;;;;;;5002266;28;19944;-40
2022/07/23 01:14:00;;;;;;;;;;;;;;;;;;5006013;28;20394;-40
2022/07/23 01:16:26;;;;;;;;;;;;;;;;;;5005935;28;20098;-40
2022/07/23 01:18:53;;;;;;;;;;;;;;;;;;5005141;28;19909;-40
2022/07/23 01:21:20;;;;;;;;;;;;;;;;;;5004060;28;19917;-40
2022/07/23 01:23:46;;;;;;;;;;;;;;;;;;5005413;28;20000;-40
2022/07/23 01:26:13;;;;;;;;;;;;;;;;;;5008623;28;20025;-40
2022/07/23 01:28:39;;;;;;;;;;;;;;;;;;5008514;28;19917;-40
2022/07/23 01:31:05;;;;;;;;;;;;;;;;;;5002955;28;19919;-40
2022/07/23 01:33:31;;;;;;;;;;;;;;;;;;4991592;28;20395;-40
2022/07/23 01:35:57;;;;;;;;;;;;;;;;;;4992119;28;19968;-40
2022/07/23 01:38:23;;;;;;;;;;;;;;;;;;4990852;28;20330;-40
2022/07/23 01:40:49;;;;;;;;;;;;;;;;;;5001076;28;19917;-40
2022/07/23 01:43:15;;;;;;;;;;;;;;;;;;5006820;28;20377;-40
2022/07/23 01:45:43;;;;;;;;;;;;;;;;;;5011620;28;19914;-39
2022/07/23 01:48:09;;;;;;;;;;;;;;;;;;5004764;28;19917;-39
2022/07/23 01:50:35;;;;;;;;;;;;;;;;;;4998188;28;19920;-39
2022/07/23 01:53:01;;;;;;;;;;;;;;;;;;5010317;28;19913;-39
2022/07/23 01:55:27;;;;;;;;;;;;;;;;;;5009979;28;19929;-39
2022/07/23 01:57:53;;;;;;;;;;;;;;;;;;5010392;28;19975;-39
2022/07/23 02:00:19;;;;;;;;;;;;;;;;;;5008707;28;19918;-39
2022/07/23 02:02:45;;;;;;;;;;;;;;;;;;4995299;28;19920;-39
2022/07/23 02:05:11;;;;;;;;;;;;;;;;;;5006750;28;20004;-39
2022/07/23 02:07:37;;;;;;;;;;;;;;;;;;5010065;28;19940;-39
2022/07/23 02:10:03;;;;;;;;;;;;;;;;;;5010043;28;19909;-39
2022/07/23 02:12:29;;;;;;;;;;;;;;;;;;5010307;28;19920;-39
2022/07/23 02:14:56;;;;;;;;;;;;;;;;;;4989975;28;19914;-39
2022/07/23 02:17:23;;;;;;;;;;;;;;;;;;4988502;28;19964;-39
2022/07/23 02:19:49;;;;;;;;;;;;;;;;;;4988896;28;20311;-39
2022/07/23 02:22:14;;;;;;;;;;;;;;;;;;4988650;28;20008;-39
2022/07/23 02:24:40;;;;;;;;;;;;;;;;;;5000272;28;19917;-39
2022/07/23 02:27:07;;;;;;;;;;;;;;;;;;5008097;28;19913;-39
2022/07/23 02:29:33;;;;;;;;;;;;;;;;;;5007846;28;20299;-39
2022/07/23 02:31:59;;;;;;;;;;;;;;;;;;5007079;28;19924;-39
2022/07/23 02:34:26;;;;;;;;;;;;;;;;;;5001426;28;20001;-39
2022/07/23 02:36:52;;;;;;;;;;;;;;;;;;4987567;28;19914;-39
2022/07/23 02:39:19;;;;;;;;;;;;;;;;;;4988061;28;19980;-39
2022/07/23 02:41:45;;;;;;;;;;;;;;;;;;4988674;28;19910;-39
2022/07/23 02:44:10;;;;;;;;;;;;;;;;;;4992854;28;19920;-39
2022/07/23 02:46:37;;;;;;;;;;;;;;;;;;5008007;28;20413;-39
2022/07/23 02:49:04;;;;;;;;;;;;;;;;;;5007489;28;19917;-39
2022/07/23 02:51:31;;;;;;;;;;;;;;;;;;5007810;28;19939;-39
2022/07/23 02:53:57;;;;;;;;;;;;;;;;;;5006958;28;20340;-39
2022/07/23 02:56:23;;;;;;;;;;;;;;;;;;5007495;28;19967;-39
2022/07/23 02:58:50;;;;;;;;;;;;;;;;;;5007566;28;19917;-39
2022/07/23 03:01:16;;;;;;;;;;;;;;;;;;5007314;28;19936;-40
2022/07/23 03:03:41;;;;;;;;;;;;;;;;;;5007007;28;20318;-39
2022/07/23 03:06:07;;;;;;;;;;;;;;;;;;5007020;28;20012;-39
2022/07/23 03:08:33;;;;;;;;;;;;;;;;;;5007381;28;20004;-39
2022/07/23 03:10:59;;;;;;;;;;;;;;;;;;5007502;28;20010;-40
2022/07/23 03:13:25;;;;;;;;;;;;;;;;;;5005360;28;19914;-39
2022/07/23 03:15:52;;;;;;;;;;;;;;;;;;5003041;28;19920;-39
2022/07/23 03:18:18;;;;;;;;;;;;;;;;;;5007310;28;19917;-39
2022/07/23 03:20:44;;;;;;;;;;;;;;;;;;5007260;28;20331;-39
2022/07/23 03:23:10;;;;;;;;;;;;;;;;;;5005945;28;20237;-39
2022/07/23 03:25:36;;;;;;;;;;;;;;;;;;4990896;28;19914;-39
2022/07/23 03:28:02;;;;;;;;;;;;;;;;;;5007190;28;19971;-39
2022/07/23 03:30:28;;;;;;;;;;;;;;;;;;5006983;28;19914;-39
2022/07/23 03:32:55;;;;;;;;;;;;;;;;;;5006971;28;20326;-39
2022/07/23 03:35:21;;;;;;;;;;;;;;;;;;5005039;28;19920;-40
2022/07/23 03:37:48;;;;;;;;;;;;;;;;;;5006576;28;19910;-39
2022/07/23 03:40:14;;;;;;;;;;;;;;;;;;5007375;28;19967;-39
2022/07/23 03:42:41;;;;;;;;;;;;;;;;;;5007376;28;19945;-40
2022/07/23 03:45:07;;;;;;;;;;;;;;;;;;5006988;28;19917;-39
2022/07/23 03:47:33;;;;;;;;;;;;;;;;;;5003339;28;19918;-39
2022/07/23 03:50:00;;;;;;;;;;;;;;;;;;4987071;28;19914;-40
2022/07/23 03:52:26;;;;;;;;;;;;;;;;;;4990315;28;19914;-39
2022/07/23 03:54:53;;;;;;;;;;;;;;;;;;5006698;28;19966;-39
2022/07/23 03:57:19;;;;;;;;;;;;;;;;;;5005784;28;19961;-39
2022/07/23 03:59:45;;;;;;;;;;;;;;;;;;5005782;28;19960;-39
2022/07/23 04:02:11;;;;;;;;;;;;;;;;;;5007139;28;19909;-39
2022/07/23 04:04:37;;;;;;;;;;;;;;;;;;5006132;28;19928;-39
2022/07/23 04:07:03;;;;;;;;;;;;;;;;;;5006343;28;19917;-39
2022/07/23 04:09:29;;;;;;;;;;;;;;;;;;5005400;28;19992;-40
2022/07/23 04:11:55;;;;;;;;;;;;;;;;;;5008058;28;19914;-39
2022/07/23 04:14:22;;;;;;;;;;;;;;;;;;5008029;28;20353;-39
2022/07/23 04:16:48;;;;;;;;;;;;;;;;;;5007368;28;19914;-40
2022/07/23 04:19:14;;;;;;;;;;;;;;;;;;5005607;28;19936;-40
2022/07/23 04:21:40;;;;;;;;;;;;;;;;;;4988212;28;19922;-40
2022/07/23 04:24:06;;;;;;;;;;;;;;;;;;4987948;28;19941;-40
2022/07/23 04:26:32;;;;;;;;;;;;;;;;;;4987806;28;19941;-40
2022/07/23 04:28:58;;;;;;;;;;;;;;;;;;4997673;28;19921;-39
2022/07/23 04:31:24;;;;;;;;;;;;;;;;;;5006164;28;19913;-39
2022/07/23 04:33:50;;;;;;;;;;;;;;;;;;5005408;28;19917;-40
2022/07/23 04:36:16;;;;;;;;;;;;;;;;;;5007478;28;19910;-40
2022/07/23 04:38:42;;;;;;;;;;;;;;;;;;5007889;28;19914;-39
2022/07/23 04:41:08;;;;;;;;;;;;;;;;;;5007578;28;20063;-39
2022/07/23 04:43:33;;;;;;;;;;;;;;;;;;5006305;28;19909;-39
2022/07/23 04:45:59;;;;;;;;;;;;;;;;;;5006889;28;19920;-40
2022/07/23 04:48:25;;;;;;;;;;;;;;;;;;5007097;28;19932;-40
2022/07/23 04:50:52;;;;;;;;;;;;;;;;;;5007382;28;19973;-40
2022/07/23 04:53:19;;;;;;;;;;;;;;;;;;5005358;28;19917;-40
2022/07/23 04:55:45;;;;;;;;;;;;;;;;;;5007025;28;19913;-40
2022/07/23 04:58:11;;;;;;;;;;;;;;;;;;5007787;28;19916;-40
2022/07/23 05:00:37;;;;;;;;;;;;;;;;;;5006120;28;19909;-39
2022/07/23 05:03:03;;;;;;;;;;;;;;;;;;5006946;28;20000;-40
2022/07/23 05:05:29;;;;;;;;;;;;;;;;;;5003765;28;19913;-40
2022/07/23 05:07:56;;;;;;;;;;;;;;;;;;5006783;28;19924;-40
2022/07/23 05:10:22;;;;;;;;;;;;;;;;;;5007006;28;19968;-40
2022/07/23 05:12:48;;;;;;;;;;;;;;;;;;5005117;28;19952;-40
2022/07/23 05:15:14;;;;;;;;;;;;;;;;;;5004503;28;19918;-40
2022/07/23 05:17:40;;;;;;;;;;;;;;;;;;5006995;28;19937;-40
2022/07/23 05:20:06;;;;;;;;;;;;;;;;;;5006703;28;19914;-40
2022/07/23 05:22:32;;;;;;;;;;;;;;;;;;5006733;28;19910;-40
2022/07/23 05:24:58;;;;;;;;;;;;;;;;;;5005749;28;19917;-40
2022/07/23 05:27:24;;;;;;;;;;;;;;;;;;5006916;28;20377;-41
2022/07/23 05:29:50;;;;;;;;;;;;;;;;;;5006521;28;19917;-40
2022/07/23 05:32:16;;;;;;;;;;;;;;;;;;5006676;28;19943;-40
2022/07/23 05:34:42;;;;;;;;;;;;;;;;;;4993532;28;19917;-40
2022/07/23 05:37:08;;;;;;;;;;;;;;;;;;5006759;28;19914;-40
2022/07/23 05:39:34;;;;;;;;;;;;;;;;;;5006583;28;19944;-40
2022/07/23 05:42:00;;;;;;;;;;;;;;;;;;5006806;28;19914;-40
2022/07/23 05:44:27;;;;;;;;;;;;;;;;;;5005243;28;19920;-40
2022/07/23 05:46:53;;;;;;;;;;;;;;;;;;5006425;28;20338;-40
2022/07/23 05:49:19;;;;;;;;;;;;;;;;;;5006546;28;19917;-40
2022/07/23 05:51:45;;;;;;;;;;;;;;;;;;5004196;28;20016;-41
2022/07/23 05:54:11;;;;;;;;;;;;;;;;;;5007239;28;19937;-40
2022/07/23 05:56:37;;;;;;;;;;;;;;;;;;5006368;28;19933;-40
2022/07/23 05:59:04;;;;;;;;;;;;;;;;;;5006345;28;19920;-40
2022/07/23 06:01:30;;;;;;;;;;;;;;;;;;4999675;28;20013;-40
2022/07/23 06:03:55;;;;;;;;;;;;;;;;;;5005796;28;19929;-42
2022/07/23 06:06:21;;;;;;;;;;;;;;;;;;5006390;28;19913;-42
2022/07/23 06:08:47;;;;;;;;;;;;;;;;;;5006441;28;19920;-41
2022/07/23 06:11:13;;;;;;;;;;;;;;;;;;5001914;28;19914;-44
2022/07/23 06:13:39;;;;;;;;;;;;;;;;;;5003014;28;19920;-42
2022/07/23 06:16:05;;;;;;;;;;;;;;;;;;5009862;28;19948;-41
2022/07/23 06:18:31;;;;;;;;;;;;;;;;;;5009499;28;19928;-44
2022/07/23 06:20:57;;;;;;;;;;;;;;;;;;5009899;28;19917;-42
2022/07/23 06:23:23;;;;;;;;;;;;;;;;;;5008624;28;19939;-41
2022/07/23 06:25:49;;;;;;;;;;;;;;;;;;5009723;28;19936;-41
2022/07/23 06:28:15;;;;;;;;;;;;;;;;;;5009540;28;19999;-43
2022/07/23 06:30:41;;;;;;;;;;;;;;;;;;5004842;28;19922;-42
2022/07/23 06:33:07;;;;;;;;;;;;;;;;;;4991107;28;19914;-41
2022/07/23 06:35:33;;;;;;;;;;;;;;;;;;5002290;28;19917;-41
2022/07/23 06:37:59;;;;;;;;;;;;;;;;;;4999495;28;19914;-41
2022/07/23 06:40:25;;;;;;;;;;;;;;;;;;5002160;28;20291;-42
2022/07/23 06:42:51;;;;;;;;;;;;;;;;;;5007954;28;20429;-41
2022/07/23 06:45:17;;;;;;;;;;;;;;;;;;5008988;28;20011;-41
2022/07/23 06:47:43;;;;;;;;;;;;;;;;;;5009063;28;19913;-42
2022/07/23 06:50:09;;;;;;;;;;;;;;;;;;5004312;28;19955;-41
2022/07/23 06:52:35;;;;;;;;;;;;;;;;;;5008921;28;19914;-42
2022/07/23 06:55:01;;;;;;;;;;;;;;;;;;4996137;28;19917;-42
2022/07/23 06:57:27;;;;;;;;;;;;;;;;;;5006573;28;19920;-41
2022/07/23 06:59:53;;;;;;;;;;;;;;;;;;5007651;28;19913;-42
2022/07/23 07:02:19;;;;;;;;;;;;;;;;;;4998815;28;19940;-42
2022/07/23 07:04:45;;;;;;;;;;;;;;;;;;5008287;28;19914;-41
2022/07/23 07:07:12;;;;;;;;;;;;;;;;;;5000101;28;19936;-42
2022/07/23 07:09:38;;;;;;;;;;;;;;;;;;4994971;28;19918;-41
2022/07/23 07:12:04;;;;;;;;;;;;;;;;;;4991027;28;19924;-41
2022/07/23 07:14:30;;;;;;;;;;;;;;;;;;4997639;28;19917;-41
2022/07/23 07:16:55;;;;;;;;;;;;;;;;;;4998790;28;20318;-41
2022/07/23 07:19:21;;;;;;;;;;;;;;;;;;5007333;28;20068;-42
2022/07/23 07:21:47;;;;;;;;;;;;;;;;;;5009239;28;20004;-41
2022/07/23 07:24:13;;;;;;;;;;;;;;;;;;5009737;28;19917;-42
2022/07/23 07:26:39;;;;;;;;;;;;;;;;;;5009816;28;19940;-42
2022/07/23 07:29:05;;;;;;;;;;;;;;;;;;5009290;28;19917;-43
2022/07/23 07:31:31;;;;;;;;;;;;;;;;;;5007775;28;19991;-42
2022/07/23 07:33:57;;;;;;;;;;;;;;;;;;5009725;28;20381;-41
2022/07/23 07:36:23;;;;;;;;;;;;;;;;;;5009391;28;20002;-42
2022/07/23 07:38:49;;;;;;;;;;;;;;;;;;5009243;28;19915;-42
2022/07/23 07:41:15;;;;;;;;;;;;;;;;;;5009241;28;19964;-42
2022/07/23 07:43:41;;;;;;;;;;;;;;;;;;5009024;28;19914;-42
2022/07/23 07:46:09;;;;;;;;;;;;;;;;;;5008881;28;19936;-43
2022/07/23 07:48:35;;;;;;;;;;;;;;;;;;5008524;28;19929;-43
2022/07/23 07:51:01;;;;;;;;;;;;;;;;;;5009146;28;19913;-42
2022/07/23 07:53:27;;;;;;;;;;;;;;;;;;5003053;28;19972;-43
2022/07/23 07:55:53;;;;;;;;;;;;;;;;;;5003147;28;19917;-42
2022/07/23 07:58:19;;;;;;;;;;;;;;;;;;4997937;28;19935;-43
2022/07/23 08:00:45;;;;;;;;;;;;;;;;;;5007751;28;19988;-42
2022/07/23 08:03:11;;;;;;;;;;;;;;;;;;5009705;28;19917;-42
2022/07/23 08:05:37;;;;;;;;;;;;;;;;;;5008624;28;19967;-43
2022/07/23 08:08:03;;;;;;;;;;;;;;;;;;5008726;28;19921;-41
2022/07/23 08:10:29;;;;;;;;;;;;;;;;;;5000210;28;19957;-40
2022/07/23 08:12:56;;;;;;;;;;;;;;;;;;4998427;28;20413;-40
2022/07/23 08:15:23;;;;;;;;;;;;;;;;;;5002584;28;19929;-40
2022/07/23 08:17:49;;;;;;;;;;;;;;;;;;4993003;28;19914;-40
2022/07/23 08:20:15;;;;;;;;;;;;;;;;;;4996030;28;19917;-40
2022/07/23 08:22:41;;;;;;;;;;;;;;;;;;4999202;28;20681;-40
2022/07/23 08:25:07;;;;;;;;;;;;;;;;;;5008132;28;19914;-40
2022/07/23 08:27:33;;;;;;;;;;;;;;;;;;4993399;28;19918;-40
2022/07/23 08:29:58;;;;;;;;;;;;;;;;;;4990183;28;19959;-40
2022/07/23 08:32:24;;;;;;;;;;;;;;;;;;5003640;28;19917;-40
2022/07/23 08:34:51;;;;;;;;;;;;;;;;;;5000379;28;19909;-40
2022/07/23 08:37:18;;;;;;;;;;;;;;;;;;4986530;28;20418;-40
2022/07/23 08:39:44;;;;;;;;;;;;;;;;;;4985850;28;19920;-40
2022/07/23 08:42:10;;;;;;;;;;;;;;;;;;4986847;28;20307;-40
2022/07/23 08:44:36;;;;;;;;;;;;;;;;;;4989091;28;19913;-40
2022/07/23 08:47:02;;;;;;;;;;;;;;;;;;5005820;28;20364;-41
2022/07/23 08:49:28;;;;;;;;;;;;;;;;;;4999095;28;19928;-40
2022/07/23 08:51:54;;;;;;;;;;;;;;;;;;4994406;28;19918;-40
2022/07/23 08:54:19;;;;;;;;;;;;;;;;;;4994314;28;19914;-40
2022/07/23 08:56:45;;;;;;;;;;;;;;;;;;4992095;28;19992;-40
2022/07/23 08:59:13;;;;;;;;;;;;;;;;;;4987931;28;19918;-40
2022/07/23 09:01:39;;;;;;;;;;;;;;;;;;4986931;28;20417;-40
2022/07/23 09:04:05;;;;;;;;;;;;;;;;;;4986200;28;20087;-40
2022/07/23 09:06:32;;;;;;;;;;;;;;;;;;4985547;28;20449;-40
2022/07/23 09:08:57;;;;;;;;;;;;;;;;;;4985816;28;20020;-41
2022/07/23 09:11:24;;;;;;;;;;;;;;;;;;4986210;28;20457;-41
2022/07/23 09:13:52;;;;;;;;;;;;;;;;;;4985548;28;19910;-41
2022/07/23 09:16:19;;;;;;;;;;;;;;;;;;4985875;28;19924;-41
2022/07/23 09:18:45;;;;;;;;;;;;;;;;;;4985531;28;20398;-41
2022/07/23 09:21:11;;;;;;;;;;;;;;;;;;4986374;28;19916;-41
2022/07/23 09:23:38;;;;;;;;;;;;;;;;;;4985185;28;20322;-40
2022/07/23 09:26:04;;;;;;;;;;;;;;;;;;4985939;28;19914;-40
2022/07/23 09:28:30;;;;;;;;;;;;;;;;;;4985039;28;19924;-41
2022/07/23 09:30:57;;;;;;;;;;;;;;;;;;4985680;28;19910;-41
2022/07/23 09:33:24;;;;;;;;;;;;;;;;;;4985871;28;19913;-41
2022/07/23 09:35:50;;;;;;;;;;;;;;;;;;4985455;28;19980;-40
2022/07/23 09:38:17;;;;;;;;;;;;;;;;;;4985359;28;19910;-41
2022/07/23 09:40:43;;;;;;;;;;;;;;;;;;4986113;28;20409;-40
2022/07/23 09:43:09;;;;;;;;;;;;;;;;;;4985833;28;19910;-40
2022/07/23 09:45:35;;;;;;;;;;;;;;;;;;4986033;28;20394;-41
2022/07/23 09:48:02;;;;;;;;;;;;;;;;;;4989438;28;19949;-41
2022/07/23 09:50:27;;;;;;;;;;;;;;;;;;4989622;28;19917;-41
2022/07/23 09:52:53;;;;;;;;;;;;;;;;;;4989425;28;20462;-40
2022/07/23 09:55:19;;;;;;;;;;;;;;;;;;4989227;28;20002;-40
2022/07/23 09:57:46;;;;;;;;;;;;;;;;;;4988952;28;20307;-41
2022/07/23 10:00:12;;;;;;;;;;;;;;;;;;4989785;28;20417;-40
2022/07/23 10:02:38;;;;;;;;;;;;;;;;;;4988737;28;20394;-41
2022/07/23 10:05:05;;;;;;;;;;;;;;;;;;4989085;28;20456;-40
2022/07/23 10:07:31;;;;;;;;;;;;;;;;;;4988760;28;19913;-41
2022/07/23 10:09:57;;;;;;;;;;;;;;;;;;4989069;28;19980;-41
2022/07/23 10:15:08;;;;;;;;;;;;;;;;;;4988926;28;19925;-41
2022/07/23 10:17:33;;;;;;;;;;;;;;;;;;4988586;28;19913;-41
2022/07/23 10:19:59;;;;;;;;;;;;;;;;;;4988813;28;20402;-41
2022/07/23 10:22:26;;;;;;;;;;;;;;;;;;4988781;28;19914;-41
2022/07/23 10:24:52;;;;;;;;;;;;;;;;;;4988946;28;19913;-41
2022/07/23 10:27:18;;;;;;;;;;;;;;;;;;4988581;28;20391;-41
2022/07/23 10:29:44;;;;;;;;;;;;;;;;;;4986909;28;19979;-41
2022/07/23 10:32:11;;;;;;;;;;;;;;;;;;4989278;28;20449;-41
2022/07/23 10:34:37;;;;;;;;;;;;;;;;;;4988360;28;20291;-41
2022/07/23 10:37:02;;;;;;;;;;;;;;;;;;4988673;28;19910;-41
2022/07/23 10:39:28;;;;;;;;;;;;;;;;;;4988130;28;19913;-41
2022/07/23 10:41:54;;;;;;;;;;;;;;;;;;4988173;28;19933;-41
2022/07/23 10:44:25;;;;;;;;;;;;;;;;;;4988668;28;19992;-41
2022/07/23 10:46:52;;;;;;;;;;;;;;;;;;4988343;28;19949;-41
2022/07/23 10:49:18;;;;;;;;;;;;;;;;;;4988271;28;20004;-42
2022/07/23 10:51:44;;;;;;;;;;;;;;;;;;4988322;28;20322;-41
2022/07/23 10:54:10;;;;;;;;;;;;;;;;;;4988915;28;19910;-42
2022/07/23 10:56:37;;;;;;;;;;;;;;;;;;4988240;28;19913;-60
2022/07/23 10:59:03;;;;;;;;;;;;;;;;;;4987442;28;19913;-59
2022/07/23 11:01:29;;;;;;;;;;;;;;;;;;4987968;28;19960;-60
2022/07/23 11:03:55;;;;;;;;;;;;;;;;;;4988225;28;19910;-59
2022/07/23 11:06:21;;;;;;;;;;;;;;;;;;4988181;28;20009;-59
2022/07/23 11:08:47;;;;;;;;;;;;;;;;;;4987753;28;20370;-59
2022/07/23 11:11:12;;;;;;;;;;;;;;;;;;4988715;28;19941;-59
2022/07/23 11:13:38;;;;;;;;;;;;;;;;;;4987565;28;20279;-59
2022/07/23 11:16:05;;;;;;;;;;;;;;;;;;4988067;28;19914;-59
2022/07/23 11:18:31;;;;;;;;;;;;;;;;;;4987417;28;19910;-59
2022/07/23 11:20:57;;;;;;;;;;;;;;;;;;4988232;28;19975;-59
2022/07/23 11:23:23;;;;;;;;;;;;;;;;;;4987778;28;20400;-59
2022/07/23 11:25:49;;;;;;;;;;;;;;;;;;4987426;28;19910;-59
2022/07/23 11:28:15;;;;;;;;;;;;;;;;;;4987405;28;19918;-60
2022/07/23 11:30:42;;;;;;;;;;;;;;;;;;4987734;28;19942;-59
2022/07/23 11:33:08;;;;;;;;;;;;;;;;;;4987817;28;20496;-59
2022/07/23 11:35:34;;;;;;;;;;;;;;;;;;4987431;28;20012;-59
2022/07/23 11:38:00;;;;;;;;;;;;;;;;;;4987420;28;19968;-59
2022/07/23 11:40:26;;;;;;;;;;;;;;;;;;4986507;28;19909;-59
2022/07/23 11:42:52;;;;;;;;;;;;;;;;;;4988228;28;19913;-59
2022/07/23 11:45:19;;;;;;;;;;;;;;;;;;5001682;28;19918;-59
2022/07/23 11:47:46;;;;;;;;;;;;;;;;;;5006353;28;20224;-59
2022/07/23 11:50:13;;;;;;;;;;;;;;;;;;5006667;28;19910;-59
2022/07/23 11:52:39;;;;;;;;;;;;;;;;;;5006700;28;19947;-59
2022/07/23 11:55:06;;;;;;;;;;;;;;;;;;5006729;28;20473;-59
2022/07/23 11:57:31;;;;;;;;;;;;;;;;;;5006369;28;19963;-59
2022/07/23 11:59:57;;;;;;;;;;;;;;;;;;5006309;28;20024;-59
2022/07/23 12:02:24;;;;;;;;;;;;;;;;;;5007224;28;19923;-59
2022/07/23 12:04:50;;;;;;;;;;;;;;;;;;5006226;28;19910;-59
2022/07/23 12:07:16;;;;;;;;;;;;;;;;;;5006499;28;19939;-59
2022/07/23 12:09:43;;;;;;;;;;;;;;;;;;5006174;28;19917;-59
2022/07/23 12:12:09;;;;;;;;;;;;;;;;;;5006355;28;19913;-59
2022/07/23 12:14:35;;;;;;;;;;;;;;;;;;5006168;28;19917;-59
2022/07/23 12:17:01;;;;;;;;;;;;;;;;;;5006453;28;19914;-59
2022/07/23 12:19:27;;;;;;;;;;;;;;;;;;5005991;28;20184;-59
2022/07/23 12:21:52;;;;;;;;;;;;;;;;;;5006903;28;19984;-59
2022/07/23 12:24:18;;;;;;;;;;;;;;;;;;5006277;28;19919;-59
2022/07/23 12:26:45;;;;;;;;;;;;;;;;;;5005856;28;19971;-59
2022/07/23 12:29:11;;;;;;;;;;;;;;;;;;5006032;28;20008;-59
2022/07/23 12:31:38;;;;;;;;;;;;;;;;;;5005606;28;20024;-59
2022/07/23 12:34:04;;;;;;;;;;;;;;;;;;5006411;28;20180;-59
2022/07/23 12:36:30;;;;;;;;;;;;;;;;;;5006107;28;20298;-59
2022/07/23 12:38:56;;;;;;;;;;;;;;;;;;5006612;28;20131;-59
2022/07/23 12:41:23;;;;;;;;;;;;;;;;;;5006165;28;20294;-59
2022/07/23 12:43:49;;;;;;;;;;;;;;;;;;5005765;28;19949;-59
2022/07/23 12:46:15;;;;;;;;;;;;;;;;;;5005852;28;20390;-59
2022/07/23 12:48:41;;;;;;;;;;;;;;;;;;5005611;28;19913;-59
2022/07/23 12:51:08;;;;;;;;;;;;;;;;;;5005800;28;19910;-59
2022/07/23 12:53:34;;;;;;;;;;;;;;;;;;5005983;28;19913;-59
2022/07/23 12:56:00;;;;;;;;;;;;;;;;;;5005502;28;19964;-59
2022/07/23 12:58:26;;;;;;;;;;;;;;;;;;5005975;28;19910;-59
2022/07/23 13:00:52;;;;;;;;;;;;;;;;;;5006006;28;20003;-58
2022/07/23 13:03:19;;;;;;;;;;;;;;;;;;5005719;28;20013;-59
2022/07/23 13:05:47;;;;;;;;;;;;;;;;;;5005565;28;20890;-59
2022/07/23 13:08:13;;;;;;;;;;;;;;;;;;5005803;28;20386;-59
2022/07/23 13:10:40;;;;;;;;;;;;;;;;;;5005080;28;19921;-59
2022/07/23 13:13:05;;;;;;;;;;;;;;;;;;5005614;28;20409;-58
2022/07/23 13:15:31;;;;;;;;;;;;;;;;;;5005144;28;19945;-59
2022/07/23 13:17:57;;;;;;;;;;;;;;;;;;5005512;28;20231;-59
2022/07/23 13:20:24;;;;;;;;;;;;;;;;;;5005423;28;19913;-59
2022/07/23 13:22:50;;;;;;;;;;;;;;;;;;5005210;28;20350;-59
2022/07/23 13:25:16;;;;;;;;;;;;;;;;;;5005118;28;19920;-59
2022/07/23 13:27:42;;;;;;;;;;;;;;;;;;5005006;28;19918;-59
2022/07/23 13:30:09;;;;;;;;;;;;;;;;;;5005017;28;19977;-59
2022/07/23 13:32:35;;;;;;;;;;;;;;;;;;5005185;28;19920;-59
2022/07/23 13:35:01;;;;;;;;;;;;;;;;;;5005395;28;19910;-59
2022/07/23 13:37:28;;;;;;;;;;;;;;;;;;5004993;28;19909;-59
2022/07/23 13:39:53;;;;;;;;;;;;;;;;;;5005618;28;20023;-59
2022/07/23 13:42:19;;;;;;;;;;;;;;;;;;5004826;28;20015;-59
2022/07/23 13:44:46;;;;;;;;;;;;;;;;;;4985057;28;20385;-59
2022/07/23 13:47:12;;;;;;;;;;;;;;;;;;4985781;28;19914;-59
2022/07/23 13:49:39;;;;;;;;;;;;;;;;;;4985773;28;19921;-59
2022/07/23 13:52:05;;;;;;;;;;;;;;;;;;4985981;28;20311;-59
2022/07/23 13:54:31;;;;;;;;;;;;;;;;;;4985300;28;20058;-59
2022/07/23 13:56:58;;;;;;;;;;;;;;;;;;4985736;28;19980;-59
2022/07/23 13:59:24;;;;;;;;;;;;;;;;;;4986029;28;19999;-59
2022/07/23 14:01:51;;;;;;;;;;;;;;;;;;4985302;28;19977;-59
2022/07/23 14:04:16;;;;;;;;;;;;;;;;;;4985436;28;19941;-59
2022/07/23 14:06:43;;;;;;;;;;;;;;;;;;4985198;28;19909;-59
2022/07/23 14:09:09;;;;;;;;;;;;;;;;;;4985636;28;20242;-59
2022/07/23 14:11:36;;;;;;;;;;;;;;;;;;4984987;28;19913;-59
2022/07/23 14:14:02;;;;;;;;;;;;;;;;;;4985535;28;19909;-59
2022/07/23 14:16:28;;;;;;;;;;;;;;;;;;4985145;28;19996;-59
2022/07/23 14:18:54;;;;;;;;;;;;;;;;;;4985974;28;20398;-59
2022/07/23 14:21:20;;;;;;;;;;;;;;;;;;4985290;28;19913;-59
2022/07/23 14:23:46;;;;;;;;;;;;;;;;;;4985014;28;19918;-59
2022/07/23 14:26:11;;;;;;;;;;;;;;;;;;4985025;28;20373;-59
2022/07/23 14:28:37;;;;;;;;;;;;;;;;;;4984785;28;19922;-59
2022/07/23 14:31:03;;;;;;;;;;;;;;;;;;4985248;28;20170;-59
2022/07/23 14:33:29;;;;;;;;;;;;;;;;;;4987384;28;19914;-58
2022/07/23 14:35:55;;;;;;;;;;;;;;;;;;4989258;28;20401;-58
2022/07/23 14:38:21;;;;;;;;;;;;;;;;;;4989586;28;19910;-58
2022/07/23 14:40:47;;;;;;;;;;;;;;;;;;4988094;28;20379;-59
2022/07/23 14:43:14;;;;;;;;;;;;;;;;;;4988736;28;19925;-59
2022/07/23 14:45:40;;;;;;;;;;;;;;;;;;4988460;28;19914;-58
2022/07/23 14:48:05;;;;;;;;;;;;;;;;;;4988763;28;20016;-58
2022/07/23 14:50:32;;;;;;;;;;;;;;;;;;4988063;28;20337;-59
2022/07/23 14:52:58;;;;;;;;;;;;;;;;;;4988755;28;19910;-58
2022/07/23 14:55:24;;;;;;;;;;;;;;;;;;4988782;28;20417;-58
2022/07/23 14:57:50;;;;;;;;;;;;;;;;;;4988124;28;19921;-59
2022/07/23 15:00:16;;;;;;;;;;;;;;;;;;4988042;28;19913;-59
2022/07/23 15:02:42;;;;;;;;;;;;;;;;;;4989143;28;19960;-58
2022/07/23 15:05:08;;;;;;;;;;;;;;;;;;5007864;28;19922;-58
2022/07/23 15:07:34;;;;;;;;;;;;;;;;;;4989698;28;19914;-58
2022/07/23 15:10:00;;;;;;;;;;;;;;;;;;5005991;28;19917;-58
2022/07/23 15:12:26;;;;;;;;;;;;;;;;;;4996951;28;19914;-58
2022/07/23 15:14:52;;;;;;;;;;;;;;;;;;5000840;28;20602;-58
2022/07/23 15:17:18;;;;;;;;;;;;;;;;;;4999482;28;19920;-59
2022/07/23 15:19:43;;;;;;;;;;;;;;;;;;5000808;28;19914;-60
2022/07/23 15:22:09;;;;;;;;;;;;;;;;;;4992894;28;20000;-58
2022/07/23 15:24:35;;;;;;;;;;;;;;;;;;5002156;28;19922;-58
2022/07/23 15:27:01;;;;;;;;;;;;;;;;;;4990828;28;19980;-58
2022/07/23 15:29:27;;;;;;;;;;;;;;;;;;4995934;28;19929;-58
2022/07/23 15:31:54;;;;;;;;;;;;;;;;;;4997348;28;20394;-58
2022/07/23 15:34:20;;;;;;;;;;;;;;;;;;5008123;28;19914;-58
2022/07/23 15:36:46;;;;;;;;;;;;;;;;;;4990610;28;19925;-58
2022/07/23 15:39:12;;;;;;;;;;;;;;;;;;4995344;28;20508;-58
2022/07/23 15:41:38;;;;;;;;;;;;;;;;;;5007144;28;19910;-58
2022/07/23 15:44:04;;;;;;;;;;;;;;;;;;4994439;28;19941;-60
2022/07/23 15:46:30;;;;;;;;;;;;;;;;;;4988135;28;19914;-60
2022/07/23 15:48:56;;;;;;;;;;;;;;;;;;4988072;28;19952;-60
2022/07/23 15:51:23;;;;;;;;;;;;;;;;;;4991194;28;19977;-59
2022/07/23 15:53:49;;;;;;;;;;;;;;;;;;4989646;28;19941;-59
2022/07/23 15:56:16;;;;;;;;;;;;;;;;;;4994476;28;19925;-59
2022/07/23 15:58:43;;;;;;;;;;;;;;;;;;4997209;28;20208;-59
2022/07/23 16:01:09;;;;;;;;;;;;;;;;;;4994722;28;19940;-60
2022/07/23 16:03:35;;;;;;;;;;;;;;;;;;4991505;28;19937;-59
2022/07/23 16:06:01;;;;;;;;;;;;;;;;;;4997625;28;19914;-59
2022/07/23 16:08:27;;;;;;;;;;;;;;;;;;4992872;28;20425;-59
2022/07/23 16:10:56;;;;;;;;;;;;;;;;;;4993190;28;19920;-59
2022/07/23 16:13:22;;;;;;;;;;;;;;;;;;4996373;28;20107;-60
2022/07/23 16:15:49;;;;;;;;;;;;;;;;;;4999043;28;19917;-59
2022/07/23 16:18:16;;;;;;;;;;;;;;;;;;4997369;28;19918;-59
2022/07/23 16:20:42;;;;;;;;;;;;;;;;;;4994737;28;19922;-59
2022/07/23 16:23:08;;;;;;;;;;;;;;;;;;4993397;28;19932;-59
2022/07/23 16:25:34;;;;;;;;;;;;;;;;;;4990438;28;20338;-59
2022/07/23 16:27:59;;;;;;;;;;;;;;;;;;4987423;28;19928;-59
2022/07/23 16:30:25;;;;;;;;;;;;;;;;;;4992689;28;20162;-59
2022/07/23 16:32:51;;;;;;;;;;;;;;;;;;4996112;28;19968;-59
2022/07/23 16:35:17;;;;;;;;;;;;;;;;;;4995564;28;19917;-59
2022/07/23 16:37:43;;;;;;;;;;;;;;;;;;4999092;28;19960;-59
2022/07/23 16:40:09;;;;;;;;;;;;;;;;;;4998710;28;19914;-59